Terminal Aerodrome Forecast
Issued by NWS Wilmington, OH

Current Version | Previous Version | Text Only | Print | Product List | Glossary Off
Versions: 1 2 3 4 5 6 7 8 9 10 11 12 13 14 15 16 17 18 19 20

000
FTUS41 KILN 262025 AAC
TAFILN
TAF AMD
KILN 262025Z 2620/2718 21012KT P6SM VCTS BKN035CB
      TEMPO 2621/2622 24012G20KT 4SM TSRA BR OVC028CB
     FM262200 21008KT P6SM SCT040 SCT100 BKN250
     FM270100 19006KT P6SM SCT040 BKN250
     FM271600 19010KT P6SM BKN040=

USA.gov is the U.S. government's official web portal to all federal, state and local government web resources and services.